createdAt,value
2022-11-25T00:01:16.215Z,2.88
2022-11-25T00:02:18.897Z,2.78
2022-11-25T00:03:21.522Z,2.75
2022-11-25T00:04:24.231Z,2.72
2022-11-25T00:05:28.599Z,3.38
2022-11-25T00:06:33.446Z,2.58
2022-11-25T00:07:36.675Z,3.10
2022-11-25T00:08:40.275Z,2.80
2022-11-25T00:09:43.177Z,2.60
2022-11-25T00:10:45.733Z,2.70
2022-11-25T00:11:48.224Z,3.00
2022-11-25T00:12:50.756Z,3.10
2022-11-25T00:13:53.836Z,3.25
2022-11-25T00:14:56.349Z,2.60
2022-11-25T00:16:06.156Z,2.90
2022-11-25T00:17:08.797Z,2.70
2022-11-25T00:18:11.317Z,2.67
2022-11-25T00:19:14.092Z,2.72
2022-11-25T00:20:16.769Z,3.05
2022-11-25T00:21:28.124Z,2.97
2022-11-25T00:22:30.877Z,3.20
2022-11-25T00:23:33.634Z,2.70
2022-11-25T00:24:36.467Z,3.22
2022-11-25T00:25:39.191Z,2.97
2022-11-25T00:26:41.903Z,2.90
2022-11-25T00:27:44.540Z,3.33
2022-11-25T00:28:47.481Z,2.42
2022-11-25T00:29:50.496Z,3.55
2022-11-25T00:30:53.572Z,2.65
2022-11-25T00:31:56.188Z,3.08
2022-11-25T00:32:58.781Z,2.90
2022-11-25T00:34:02.877Z,2.97
2022-11-25T00:35:06.077Z,2.72
2022-11-25T00:36:23.092Z,2.53
2022-11-25T00:37:25.653Z,2.42
2022-11-25T00:38:28.542Z,3.13
2022-11-25T00:39:31.150Z,3.22
2022-11-25T00:40:35.439Z,2.65
2022-11-25T00:41:56.415Z,2.42
2022-11-25T00:43:17.731Z,3.05
2022-11-25T00:44:36.526Z,2.72
2022-11-25T00:45:40.226Z,2.72
2022-11-25T00:46:43.405Z,2.75
2022-11-25T00:47:45.890Z,2.60
2022-11-25T00:48:48.480Z,3.03
2022-11-25T00:49:53.682Z,2.95
2022-11-25T00:50:56.435Z,2.53
2022-11-25T00:51:59.376Z,2.70
2022-11-25T00:53:02.146Z,3.10
2022-11-25T00:54:04.930Z,2.63
2022-11-25T00:55:08.287Z,3.50
2022-11-25T00:56:13.583Z,3.28
2022-11-25T00:57:18.125Z,3.25
2022-11-25T00:58:21.904Z,2.83
2022-11-25T00:59:25.182Z,2.60
2022-11-25T01:00:28.465Z,2.72
2022-11-25T01:01:31.253Z,2.83
2022-11-25T01:02:33.858Z,2.88
2022-11-25T01:03:39.840Z,3.35
2022-11-25T01:04:42.414Z,3.13
2022-11-25T01:05:45.004Z,2.72
2022-11-25T01:06:49.810Z,3.00
2022-11-25T01:07:52.665Z,2.83
2022-11-25T01:08:56.065Z,2.50
2022-11-25T01:09:58.976Z,2.75
2022-11-25T01:11:10.467Z,3.00
2022-11-25T01:12:15.518Z,2.70
2022-11-25T01:13:18.106Z,2.55
2022-11-25T01:14:21.488Z,3.17
2022-11-25T01:15:24.072Z,2.80
2022-11-25T01:16:27.717Z,2.78
2022-11-25T01:17:30.343Z,3.13
2022-11-25T01:18:33.749Z,2.80
2022-11-25T01:19:40.638Z,3.13
2022-11-25T01:20:43.488Z,2.58
2022-11-25T01:21:47.025Z,2.80
2022-11-25T01:22:49.541Z,2.72
2022-11-25T01:23:53.067Z,2.50
2022-11-25T01:24:55.660Z,2.85
2022-11-25T01:26:01.200Z,3.00
2022-11-25T01:27:04.022Z,3.17
2022-11-25T01:28:06.763Z,2.78
2022-11-25T01:29:15.645Z,3.05
2022-11-25T01:30:18.215Z,3.17
2022-11-25T01:31:23.744Z,2.75
2022-11-25T01:32:26.383Z,3.42
2022-11-25T01:33:32.643Z,2.97
2022-11-25T01:34:35.899Z,2.70
2022-11-25T01:35:39.062Z,2.85
2022-11-25T01:36:42.339Z,2.78
2022-11-25T01:37:44.954Z,3.33
2022-11-25T01:38:51.822Z,2.88
2022-11-25T01:39:54.603Z,2.80
2022-11-25T01:40:57.201Z,3.13
2022-11-25T01:42:00.176Z,3.15
2022-11-25T01:43:02.861Z,3.00
2022-11-25T01:44:13.207Z,2.92
2022-11-25T01:45:28.673Z,3.80
2022-11-25T01:46:57.440Z,3.22
2022-11-25T01:48:29.852Z,2.72
2022-11-25T01:49:36.284Z,2.90
2022-11-25T01:50:40.046Z,2.40
2022-11-25T01:51:50.817Z,3.40
2022-11-25T01:52:55.605Z,2.72
2022-11-25T01:54:03.778Z,2.88
2022-11-25T01:55:13.105Z,3.10
2022-11-25T01:56:16.041Z,2.63
2022-11-25T01:57:25.009Z,3.28
2022-11-25T01:58:33.950Z,2.65
2022-11-25T01:59:43.577Z,3.45
2022-11-25T02:00:51.590Z,2.63
2022-11-25T02:01:55.255Z,2.92
2022-11-25T02:02:59.276Z,2.75
2022-11-25T02:04:03.973Z,2.80
2022-11-25T02:05:13.284Z,2.70
2022-11-25T02:06:28.261Z,3.00
2022-11-25T02:07:38.092Z,2.53
2022-11-25T02:08:43.884Z,2.78
2022-11-25T02:09:47.583Z,2.97
2022-11-25T02:10:51.803Z,2.30
2022-11-25T02:11:55.493Z,2.70
2022-11-25T02:12:58.958Z,2.60
2022-11-25T02:14:03.370Z,3.10
2022-11-25T02:15:06.644Z,2.80
2022-11-25T02:16:09.350Z,2.67
2022-11-25T02:17:11.988Z,3.22
2022-11-25T02:18:14.619Z,2.30
2022-11-25T02:19:29.056Z,2.40
2022-11-25T02:20:31.820Z,2.70
2022-11-25T02:21:43.500Z,2.78
2022-11-25T02:22:58.254Z,2.83
2022-11-25T02:24:12.350Z,2.83
2022-11-25T02:25:17.889Z,2.55
2022-11-25T02:26:21.380Z,2.58
2022-11-25T02:27:25.539Z,2.60
2022-11-25T02:28:31.247Z,3.70
2022-11-25T02:29:34.240Z,2.85
2022-11-25T02:30:37.315Z,2.85
2022-11-25T02:31:39.873Z,3.00
2022-11-25T02:32:46.517Z,2.88
2022-11-25T02:33:49.329Z,3.03
2022-11-25T02:34:52.467Z,3.53
2022-11-25T02:35:56.348Z,2.47
2022-11-25T02:37:00.837Z,3.03
2022-11-25T02:38:07.919Z,2.85
2022-11-25T02:39:12.581Z,2.42
2022-11-25T02:40:15.597Z,2.28
2022-11-25T02:41:41.496Z,2.88
2022-11-25T02:42:48.891Z,3.03
2022-11-25T02:43:51.967Z,2.90
2022-11-25T02:44:57.023Z,2.40
2022-11-25T02:46:04.524Z,2.70
2022-11-25T02:47:07.252Z,2.47
2022-11-25T02:48:10.173Z,2.90
2022-11-25T02:49:12.829Z,2.90
2022-11-25T02:50:17.751Z,2.50
2022-11-25T02:51:23.373Z,2.58
2022-11-25T02:52:26.087Z,2.92
2022-11-25T02:53:28.711Z,3.10
2022-11-25T02:54:31.309Z,2.92
2022-11-25T02:55:36.384Z,3.05
2022-11-25T02:56:40.449Z,4.70
2022-11-25T02:57:44.168Z,2.55
2022-11-25T02:58:46.764Z,3.05
2022-11-25T02:59:49.242Z,3.50
2022-11-25T03:00:51.871Z,2.80
2022-11-25T03:01:54.999Z,2.92
2022-11-25T03:03:01.541Z,3.30
2022-11-25T03:04:04.468Z,3.00
2022-11-25T03:05:07.181Z,2.88
2022-11-25T03:06:09.784Z,3.30
2022-11-25T03:07:13.004Z,2.88
2022-11-25T03:08:16.165Z,3.10
2022-11-25T03:09:18.733Z,2.80
2022-11-25T03:10:22.088Z,2.75
2022-11-25T03:11:43.925Z,2.92
2022-11-25T03:12:46.511Z,2.88
2022-11-25T03:13:49.791Z,2.63
2022-11-25T03:14:52.409Z,2.90
2022-11-25T03:15:55.289Z,2.70
2022-11-25T03:16:59.682Z,2.90
2022-11-25T03:18:06.182Z,2.97
2022-11-25T03:19:10.115Z,3.20
2022-11-25T03:20:13.455Z,2.65
2022-11-25T03:21:16.314Z,3.00
2022-11-25T03:22:19.023Z,2.75
2022-11-25T03:23:21.986Z,2.60
2022-11-25T03:24:24.572Z,3.10
2022-11-25T03:25:27.591Z,3.50
2022-11-25T03:26:31.562Z,2.95
2022-11-25T03:27:35.038Z,3.17
2022-11-25T03:28:38.793Z,2.95
2022-11-25T03:29:41.453Z,3.25
2022-11-25T03:30:44.322Z,3.22
2022-11-25T03:31:46.980Z,2.80
2022-11-25T03:32:50.159Z,2.72
2022-11-25T03:33:52.780Z,2.83
2022-11-25T03:34:57.052Z,2.83
2022-11-25T03:35:59.708Z,2.78
2022-11-25T03:37:02.481Z,3.13
2022-11-25T03:38:06.996Z,3.10
2022-11-25T03:39:12.260Z,2.90
2022-11-25T03:40:16.181Z,3.30
2022-11-25T03:41:19.686Z,3.10
2022-11-25T03:42:22.293Z,2.97
2022-11-25T03:43:24.936Z,3.30
2022-11-25T03:44:27.463Z,2.95
2022-11-25T03:45:30.168Z,3.03
2022-11-25T03:46:35.378Z,3.00
2022-11-25T03:47:41.734Z,2.88
2022-11-25T03:48:44.605Z,2.78
2022-11-25T03:49:47.582Z,2.53
2022-11-25T03:50:50.113Z,2.72
2022-11-25T03:51:52.740Z,2.80
2022-11-25T03:52:56.466Z,3.28
2022-11-25T03:53:59.083Z,2.63
2022-11-25T03:55:01.975Z,2.85
2022-11-25T03:56:07.852Z,3.05
2022-11-25T03:57:10.739Z,2.92
2022-11-25T03:58:13.582Z,2.58
2022-11-25T03:59:16.353Z,3.30
2022-11-25T04:00:19.197Z,3.17
2022-11-25T04:01:28.813Z,2.80
2022-11-25T04:02:31.556Z,2.88
2022-11-25T04:03:34.493Z,2.72
2022-11-25T04:04:37.489Z,3.13
2022-11-25T04:05:40.449Z,3.10
2022-11-25T04:06:44.710Z,2.85
2022-11-25T04:07:51.175Z,2.65
2022-11-25T04:08:56.510Z,3.20
2022-11-25T04:09:59.152Z,3.22
2022-11-25T04:11:04.828Z,2.90
2022-11-25T04:12:30.440Z,3.13
2022-11-25T04:13:39.829Z,3.00
2022-11-25T04:14:43.316Z,3.25
2022-11-25T04:15:47.480Z,3.45
2022-11-25T04:16:51.891Z,3.60
2022-11-25T04:17:54.614Z,3.42
2022-11-25T04:18:57.195Z,2.80
2022-11-25T04:19:59.768Z,3.10
2022-11-25T04:21:02.384Z,3.38
2022-11-25T04:22:05.329Z,3.05
2022-11-25T04:23:12.047Z,2.70
2022-11-25T04:24:20.478Z,3.50
2022-11-25T04:25:23.512Z,3.33
2022-11-25T04:26:26.545Z,3.45
2022-11-25T04:27:29.273Z,3.72
2022-11-25T04:28:32.850Z,3.42
2022-11-25T04:29:35.507Z,3.28
2022-11-25T04:30:40.172Z,3.50
2022-11-25T04:31:42.869Z,3.78
2022-11-25T04:32:45.404Z,3.58
2022-11-25T04:33:52.564Z,4.13
2022-11-25T04:34:58.572Z,3.60
2022-11-25T04:36:01.586Z,3.85
2022-11-25T04:37:04.375Z,3.47
2022-11-25T04:38:07.074Z,3.63
2022-11-25T04:39:11.357Z,3.83
2022-11-25T04:40:14.722Z,3.83
2022-11-25T04:41:21.735Z,3.90
2022-11-25T04:42:34.759Z,3.88
2022-11-25T04:43:39.924Z,4.18
2022-11-25T04:45:07.234Z,4.15
2022-11-25T04:46:15.006Z,3.38
2022-11-25T04:47:21.401Z,3.90
2022-11-25T04:48:24.172Z,3.90
2022-11-25T04:49:27.196Z,4.15
2022-11-25T04:50:30.031Z,3.42
2022-11-25T04:51:44.472Z,3.65
2022-11-25T04:52:47.175Z,4.05
2022-11-25T04:53:49.886Z,3.95
2022-11-25T04:54:52.573Z,4.60
2022-11-25T04:55:55.263Z,3.92
2022-11-25T04:56:57.827Z,3.45
2022-11-25T04:58:02.108Z,3.95
2022-11-25T04:59:24.856Z,3.88
2022-11-25T05:00:29.300Z,3.53
2022-11-25T05:01:33.116Z,3.55
2022-11-25T05:02:45.833Z,3.70
2022-11-25T05:03:57.505Z,3.95
2022-11-25T05:05:02.308Z,3.60
2022-11-25T05:06:08.998Z,3.95
2022-11-25T05:07:15.194Z,3.75
2022-11-25T05:08:20.004Z,4.05
2022-11-25T05:09:22.857Z,4.18
2022-11-25T05:10:34.737Z,4.05
2022-11-25T05:11:37.443Z,3.75
2022-11-25T05:12:40.704Z,3.60
2022-11-25T05:13:47.616Z,4.00
2022-11-25T05:14:50.427Z,4.18
2022-11-25T05:15:53.192Z,4.05
2022-11-25T05:16:57.933Z,4.40
2022-11-25T05:18:00.639Z,4.07
2022-11-25T05:19:15.748Z,4.07
2022-11-25T05:20:18.906Z,4.10
2022-11-25T05:21:21.855Z,4.30
2022-11-25T05:22:27.967Z,3.78
2022-11-25T05:23:31.812Z,3.83
2022-11-25T05:24:35.337Z,3.63
2022-11-25T05:25:38.626Z,3.78
2022-11-25T05:27:02.217Z,3.83
2022-11-25T05:28:05.061Z,4.43
2022-11-25T05:29:08.126Z,3.80
2022-11-25T05:30:11.238Z,4.00
2022-11-25T05:31:13.879Z,3.95
2022-11-25T05:32:17.269Z,3.58
2022-11-25T05:33:19.956Z,3.92
2022-11-25T05:34:22.580Z,3.92
2022-11-25T05:35:25.377Z,4.45
2022-11-25T05:36:28.588Z,3.78
2022-11-25T05:37:31.949Z,4.22
2022-11-25T05:38:39.407Z,4.07
2022-11-25T05:39:43.736Z,3.85
2022-11-25T05:41:18.860Z,4.25
2022-11-25T05:42:22.000Z,3.30
2022-11-25T05:43:25.229Z,3.72
2022-11-25T05:44:28.560Z,4.10
2022-11-25T05:45:31.309Z,3.80
2022-11-25T05:46:34.277Z,4.03
2022-11-25T05:47:36.860Z,3.95
2022-11-25T05:48:40.702Z,4.10
2022-11-25T05:49:43.452Z,3.58
2022-11-25T05:50:46.132Z,3.83
2022-11-25T05:51:57.989Z,4.10
2022-11-25T05:53:03.799Z,4.07
2022-11-25T05:54:06.348Z,4.30
2022-11-25T05:55:10.906Z,4.95
2022-11-25T05:56:13.444Z,3.70
2022-11-25T05:57:34.424Z,3.80
2022-11-25T05:58:43.946Z,3.88
2022-11-25T05:59:46.552Z,3.65
2022-11-25T06:01:11.030Z,4.07
2022-11-25T06:02:13.793Z,3.60
2022-11-25T06:03:17.401Z,3.85
2022-11-25T06:04:20.116Z,4.05
2022-11-25T06:05:22.756Z,3.63
2022-11-25T06:06:26.493Z,4.07
2022-11-25T06:07:29.272Z,3.95
2022-11-25T06:08:32.459Z,4.07
2022-11-25T06:09:35.081Z,4.07
2022-11-25T06:10:41.350Z,4.15
2022-11-25T06:11:44.326Z,4.43
2022-11-25T06:12:47.419Z,3.92
2022-11-25T06:13:50.391Z,4.22
2022-11-25T06:14:53.224Z,4.40
2022-11-25T06:15:55.802Z,3.72
2022-11-25T06:17:00.683Z,4.82
2022-11-25T06:18:08.419Z,3.75
2022-11-25T06:19:11.363Z,4.97
2022-11-25T06:20:14.348Z,4.45
2022-11-25T06:21:17.877Z,3.75
2022-11-25T06:22:20.516Z,4.20
2022-11-25T06:23:23.208Z,4.82
2022-11-25T06:24:26.071Z,4.68
2022-11-25T06:25:34.655Z,3.88
2022-11-25T06:26:37.378Z,4.18
2022-11-25T06:28:10.750Z,4.38
2022-11-25T06:29:03.346Z,4.10
2022-11-25T06:30:07.772Z,4.00
2022-11-25T06:31:19.246Z,4.47
2022-11-25T06:32:35.237Z,4.25
2022-11-25T06:33:53.837Z,4.60
2022-11-25T06:34:56.407Z,4.30
2022-11-25T06:36:13.739Z,4.32
2022-11-25T06:37:16.475Z,4.40
2022-11-25T06:38:19.051Z,4.45
2022-11-25T06:39:21.663Z,3.90
2022-11-25T06:40:25.356Z,4.10
2022-11-25T06:41:28.285Z,3.70
2022-11-25T06:42:30.886Z,4.22
2022-11-25T06:43:33.680Z,4.03
2022-11-25T06:44:36.394Z,4.40
2022-11-25T06:45:39.452Z,4.32
2022-11-25T06:46:42.127Z,4.22
2022-11-25T06:47:44.914Z,4.55
2022-11-25T06:48:47.566Z,4.35
2022-11-25T06:49:50.156Z,4.20
2022-11-25T06:51:00.125Z,4.55
2022-11-25T06:52:02.755Z,4.25
2022-11-25T06:53:05.290Z,3.97
2022-11-25T06:54:08.807Z,5.15
2022-11-25T06:55:11.362Z,4.50
2022-11-25T06:56:21.440Z,4.00
2022-11-25T06:57:24.035Z,5.10
2022-11-25T06:58:35.776Z,3.63
2022-11-25T06:59:39.046Z,4.47
2022-11-25T07:00:41.619Z,4.03
2022-11-25T07:01:44.599Z,4.32
2022-11-25T07:02:48.930Z,4.22
2022-11-25T07:03:54.932Z,4.40
2022-11-25T07:04:57.537Z,4.57
2022-11-25T07:06:00.159Z,4.32
2022-11-25T07:07:02.757Z,3.75
2022-11-25T07:08:05.701Z,4.95
2022-11-25T07:09:08.658Z,4.35
2022-11-25T07:10:11.455Z,3.80
2022-11-25T07:11:30.296Z,4.82
2022-11-25T07:12:32.839Z,4.22
2022-11-25T07:13:35.527Z,3.95
2022-11-25T07:14:38.409Z,4.43
2022-11-25T07:15:41.252Z,3.92
2022-11-25T07:16:45.705Z,4.20
2022-11-25T07:17:48.401Z,4.10
2022-11-25T07:18:51.482Z,3.88
2022-11-25T07:19:54.202Z,4.30
2022-11-25T07:20:56.793Z,4.10
2022-11-25T07:21:59.587Z,3.60
2022-11-25T07:23:02.370Z,4.35
2022-11-25T07:24:07.239Z,4.43
2022-11-25T07:25:10.108Z,4.43
2022-11-25T07:26:21.862Z,4.38
2022-11-25T07:27:24.489Z,4.68
2022-11-25T07:28:27.943Z,4.13
2022-11-25T07:32:16.398Z,3.78
2022-11-25T07:33:19.043Z,4.22
2022-11-25T07:34:21.934Z,4.35
2022-11-25T07:35:24.669Z,4.50
2022-11-25T07:36:28.213Z,4.72
2022-11-25T07:37:31.043Z,3.97
2022-11-25T07:38:35.224Z,4.07
2022-11-25T07:39:38.383Z,4.25
2022-11-25T07:40:41.248Z,3.97
2022-11-25T07:41:44.111Z,4.50
2022-11-25T07:42:46.905Z,3.85
2022-11-25T07:43:54.547Z,4.15
2022-11-25T07:44:59.400Z,4.25
2022-11-25T07:46:39.734Z,4.18
2022-11-25T07:47:42.495Z,4.10
2022-11-25T07:48:45.777Z,4.10
2022-11-25T07:49:48.319Z,3.95
2022-11-25T07:50:50.924Z,4.05
2022-11-25T07:51:56.933Z,3.92
2022-11-25T07:52:59.673Z,4.20
2022-11-25T07:54:04.609Z,4.15
2022-11-25T07:55:07.839Z,4.28
2022-11-25T07:56:10.523Z,4.15
2022-11-25T07:57:13.297Z,4.05
2022-11-25T07:58:15.868Z,4.13
2022-11-25T07:59:20.961Z,4.35
2022-11-25T08:00:23.788Z,4.40
2022-11-25T08:01:26.579Z,4.93
2022-11-25T08:02:29.278Z,4.05
2022-11-25T08:03:40.311Z,4.32
2022-11-25T08:04:42.978Z,3.63
2022-11-25T08:05:45.557Z,4.10
2022-11-25T08:06:51.568Z,4.13
2022-11-25T08:07:54.234Z,4.45
2022-11-25T08:08:58.072Z,4.05
2022-11-25T08:10:00.915Z,3.97
2022-11-25T08:11:18.037Z,4.00
2022-11-25T08:12:20.741Z,4.05
2022-11-25T08:13:23.370Z,3.97
2022-11-25T08:14:26.864Z,4.38
2022-11-25T08:15:29.451Z,4.18
2022-11-25T08:16:33.095Z,3.90
2022-11-25T08:17:35.865Z,3.88
2022-11-25T08:18:38.903Z,3.92
2022-11-25T08:19:41.556Z,4.30
2022-11-25T08:20:44.651Z,4.85
2022-11-25T08:21:50.057Z,3.67
2022-11-25T08:22:54.585Z,4.00
2022-11-25T08:23:57.125Z,3.35
2022-11-25T08:24:59.738Z,3.90
2022-11-25T08:26:14.403Z,4.15
2022-11-25T08:27:17.136Z,4.00
2022-11-25T08:28:19.768Z,4.65
2022-11-25T08:29:22.493Z,4.28
2022-11-25T08:30:26.189Z,4.45
2022-11-25T08:31:32.184Z,3.72
2022-11-25T08:32:39.085Z,4.75
2022-11-25T08:33:42.615Z,4.90
2022-11-25T08:34:46.169Z,3.90
2022-11-25T08:35:56.123Z,4.07
2022-11-25T08:36:59.042Z,4.47
2022-11-25T08:38:01.741Z,3.90
2022-11-25T08:39:22.857Z,4.38
2022-11-25T08:40:30.093Z,3.95
2022-11-25T08:41:35.539Z,3.83
2022-11-25T08:42:38.623Z,4.30
2022-11-25T08:43:41.925Z,4.03
2022-11-25T08:44:44.486Z,4.55
2022-11-25T08:45:47.332Z,4.22
2022-11-25T08:46:50.121Z,3.90
2022-11-25T08:47:52.637Z,4.30
2022-11-25T08:48:56.231Z,4.45
2022-11-25T08:49:58.814Z,4.05
2022-11-25T08:51:01.454Z,4.00
2022-11-25T08:52:04.110Z,4.40
2022-11-25T08:53:06.706Z,3.70
2022-11-25T08:54:09.490Z,4.07
2022-11-25T08:55:13.223Z,4.40
2022-11-25T08:56:15.965Z,4.07
2022-11-25T08:57:18.581Z,4.47
2022-11-25T08:58:21.114Z,4.22
2022-11-25T08:59:25.423Z,3.83
2022-11-25T09:00:28.970Z,4.18
2022-11-25T09:01:32.508Z,3.95
2022-11-25T09:02:35.292Z,4.50
2022-11-25T09:03:44.170Z,3.75
2022-11-25T09:04:47.006Z,4.13
2022-11-25T09:05:50.407Z,4.55
2022-11-25T09:06:52.952Z,3.90
2022-11-25T09:07:55.764Z,4.45
2022-11-25T09:08:59.125Z,4.30
2022-11-25T09:10:01.728Z,4.00
2022-11-25T09:11:05.149Z,3.90
2022-11-25T09:12:07.839Z,3.95
2022-11-25T09:13:11.889Z,3.80
2022-11-25T09:14:14.973Z,3.83
2022-11-25T09:15:17.663Z,4.05
2022-11-25T09:16:21.122Z,3.90
2022-11-25T09:17:23.951Z,3.83
2022-11-25T09:18:27.081Z,4.20
2022-11-25T09:19:29.793Z,4.00
2022-11-25T09:20:33.905Z,3.90
2022-11-25T09:21:36.503Z,4.10
2022-11-25T09:22:39.149Z,3.80
2022-11-25T09:23:41.889Z,3.92
2022-11-25T09:24:45.509Z,3.67
2022-11-25T09:25:55.033Z,4.13
2022-11-25T09:26:57.736Z,4.22
2022-11-25T09:28:00.692Z,4.13
2022-11-25T09:29:03.940Z,3.75
2022-11-25T09:30:08.351Z,4.18
2022-11-25T09:31:11.140Z,4.05
2022-11-25T09:32:14.014Z,4.07
2022-11-25T09:33:16.793Z,3.63
2022-11-25T09:34:19.368Z,4.22
2022-11-25T09:35:23.755Z,3.45
2022-11-25T09:36:26.434Z,3.95
2022-11-25T09:37:29.176Z,4.00
2022-11-25T09:38:31.873Z,3.88
2022-11-25T09:39:35.817Z,4.15
2022-11-25T09:40:47.220Z,4.38
2022-11-25T09:42:20.391Z,3.85
2022-11-25T09:44:15.158Z,3.75
2022-11-25T09:45:45.678Z,3.75
2022-11-25T09:46:56.926Z,3.95
2022-11-25T09:48:46.360Z,3.78
2022-11-25T09:50:02.070Z,3.47
2022-11-25T09:51:22.699Z,3.47
2022-11-25T09:52:37.770Z,3.80
2022-11-25T09:53:47.238Z,3.63
2022-11-25T09:55:20.231Z,4.07
2022-11-25T09:56:41.196Z,4.43
2022-11-25T09:57:56.411Z,3.70
2022-11-25T09:59:32.220Z,3.92
2022-11-25T10:00:43.045Z,3.63
2022-11-25T10:01:51.222Z,3.45
2022-11-25T10:03:23.757Z,3.53
2022-11-25T10:04:33.689Z,3.97
2022-11-25T10:05:45.956Z,3.75
2022-11-25T10:06:57.252Z,4.30
2022-11-25T10:08:14.837Z,4.07
2022-11-25T10:09:22.691Z,3.22
2022-11-25T10:10:31.301Z,3.67
2022-11-25T10:11:43.405Z,4.10
2022-11-25T10:12:48.502Z,3.70
2022-11-25T10:14:00.699Z,3.33
2022-11-25T10:15:19.243Z,4.10
2022-11-25T10:16:39.635Z,3.85
2022-11-25T10:17:51.671Z,3.80
2022-11-25T10:19:06.112Z,3.53
2022-11-25T10:20:34.422Z,3.80
2022-11-25T10:21:37.090Z,3.40
2022-11-25T10:22:55.319Z,3.78
2022-11-25T10:23:58.072Z,3.33
2022-11-25T10:25:13.672Z,3.75
2022-11-25T10:26:22.938Z,3.90
2022-11-25T10:27:52.386Z,4.43
2022-11-25T10:29:27.114Z,3.88
2022-11-25T10:31:06.474Z,3.75
2022-11-25T10:32:23.197Z,3.53
2022-11-25T10:33:33.898Z,3.88
2022-11-25T10:34:42.080Z,4.20
2022-11-25T10:35:58.097Z,3.85
2022-11-25T10:37:05.508Z,3.67
2022-11-25T10:38:18.801Z,3.22
2022-11-25T10:39:28.156Z,3.65
2022-11-25T10:40:30.758Z,3.13
2022-11-25T10:41:55.225Z,3.70
2022-11-25T10:42:58.896Z,3.22
2022-11-25T10:44:01.594Z,2.97
2022-11-25T10:45:09.204Z,3.72
2022-11-25T10:46:14.868Z,4.00
2022-11-25T10:47:44.246Z,4.13
2022-11-25T10:48:49.834Z,3.35
2022-11-25T10:50:16.062Z,3.50
2022-11-25T10:51:35.431Z,3.28
2022-11-25T10:52:49.089Z,4.07
2022-11-25T10:54:14.876Z,4.00
2022-11-25T10:55:25.657Z,3.67
2022-11-25T10:56:28.229Z,3.83
2022-11-25T10:57:30.749Z,3.63
2022-11-25T10:58:35.859Z,4.07
2022-11-25T10:59:40.212Z,3.40
2022-11-25T11:00:42.948Z,4.07
2022-11-25T11:01:45.535Z,3.00
2022-11-25T11:02:48.936Z,3.50
2022-11-25T11:03:55.465Z,3.53
2022-11-25T11:05:22.210Z,3.20
2022-11-25T11:06:29.571Z,3.42
2022-11-25T11:08:41.356Z,3.63
2022-11-25T11:09:45.563Z,3.47
2022-11-25T11:11:29.958Z,3.60
2022-11-25T11:12:32.536Z,3.28
2022-11-25T11:13:35.223Z,3.15
2022-11-25T11:14:38.350Z,4.00
2022-11-25T11:15:41.520Z,3.42
2022-11-25T11:16:55.504Z,3.20
2022-11-25T11:18:14.147Z,3.50
2022-11-25T11:19:29.365Z,3.15
2022-11-25T11:20:32.536Z,3.47
2022-11-25T11:21:46.187Z,3.45
2022-11-25T11:22:58.581Z,3.42
2022-11-25T11:24:03.118Z,3.75
2022-11-25T11:25:20.435Z,3.28
2022-11-25T11:26:30.036Z,3.35
2022-11-25T11:27:37.960Z,3.58
2022-11-25T11:28:41.671Z,3.53
2022-11-25T11:29:44.320Z,3.67
2022-11-25T11:31:16.487Z,3.92
2022-11-25T11:32:28.711Z,3.45
2022-11-25T11:33:38.532Z,3.47
2022-11-25T11:34:57.877Z,3.63
2022-11-25T11:36:06.228Z,3.22
2022-11-25T11:37:44.439Z,2.83
2022-11-25T11:38:54.143Z,3.50
2022-11-25T11:40:16.928Z,4.20
2022-11-25T11:41:32.426Z,4.28
2022-11-25T11:42:58.518Z,3.80
2022-11-25T11:44:23.605Z,4.72
2022-11-25T11:45:26.295Z,3.35
2022-11-25T11:46:51.197Z,3.42
2022-11-25T11:48:18.691Z,3.25
2022-11-25T11:49:54.896Z,3.35
2022-11-25T11:51:35.801Z,3.67
2022-11-25T11:52:55.052Z,3.45
2022-11-25T11:54:04.471Z,3.55
2022-11-25T11:55:39.142Z,3.72
2022-11-25T11:56:55.101Z,3.30
2022-11-25T11:58:26.327Z,3.42
2022-11-25T12:00:04.717Z,3.13
2022-11-25T12:01:36.755Z,3.13
2022-11-25T12:03:02.590Z,3.35
2022-11-25T12:04:31.584Z,3.13
2022-11-25T12:05:36.089Z,3.47
2022-11-25T12:06:40.627Z,3.85
2022-11-25T12:08:00.822Z,3.10
2022-11-25T12:09:24.083Z,4.68
2022-11-25T12:10:38.169Z,3.28
2022-11-25T12:11:46.262Z,3.67
2022-11-25T12:13:28.340Z,3.47
2022-11-25T12:14:44.443Z,3.05
2022-11-25T12:15:57.412Z,3.60
2022-11-25T12:17:06.602Z,3.35
2022-11-25T12:18:24.550Z,3.25
2022-11-25T12:19:41.898Z,3.50
2022-11-25T12:20:53.307Z,3.35
2022-11-25T12:22:08.144Z,3.33
2022-11-25T12:23:21.228Z,3.67
2022-11-25T12:24:42.253Z,2.97
2022-11-25T12:25:47.951Z,3.22
2022-11-25T12:27:12.316Z,3.15
2022-11-25T12:28:41.187Z,3.30
2022-11-25T12:30:07.710Z,3.50
2022-11-25T12:31:27.818Z,3.28
2022-11-25T12:32:33.521Z,2.92
2022-11-25T12:33:42.349Z,3.15
2022-11-25T12:34:55.373Z,3.25
2022-11-25T12:36:10.262Z,3.25
2022-11-25T12:37:34.401Z,3.08
2022-11-25T12:38:47.265Z,3.72
2022-11-25T12:40:15.138Z,3.72
2022-11-25T12:41:40.147Z,4.50
2022-11-25T12:44:04.202Z,3.33
2022-11-25T12:45:25.272Z,3.72
2022-11-25T12:46:51.432Z,2.95
2022-11-25T12:47:54.391Z,3.95
2022-11-25T12:49:01.983Z,3.33
2022-11-25T12:51:06.112Z,3.50
2022-11-25T12:52:09.372Z,3.03
2022-11-25T12:53:40.271Z,4.47
2022-11-25T12:55:14.223Z,3.50
2022-11-25T12:56:25.949Z,3.25
2022-11-25T12:57:49.446Z,3.53
2022-11-25T12:58:52.156Z,3.80
2022-11-25T13:00:43.242Z,3.42
2022-11-25T13:02:14.917Z,3.72
2022-11-25T13:03:34.864Z,3.83
2022-11-25T13:05:39.543Z,3.85
2022-11-25T13:07:05.079Z,4.60
2022-11-25T13:08:29.395Z,3.63
2022-11-25T13:09:47.113Z,3.38
2022-11-25T13:11:23.511Z,3.75
2022-11-25T13:14:09.194Z,3.47
2022-11-25T13:15:28.421Z,3.70
2022-11-25T13:17:43.052Z,3.10
2022-11-25T13:18:50.700Z,3.25
2022-11-25T13:20:33.238Z,3.28
2022-11-25T13:21:36.077Z,3.28
2022-11-25T13:22:38.682Z,3.55
2022-11-25T13:23:58.992Z,3.80
2022-11-25T13:25:06.466Z,3.20
2022-11-25T13:26:34.181Z,4.05
2022-11-25T13:27:42.164Z,3.40
2022-11-25T13:28:45.001Z,3.33
2022-11-25T13:29:57.991Z,4.28
2022-11-25T13:31:14.165Z,3.53
2022-11-25T13:32:32.796Z,4.90
2022-11-25T13:33:44.125Z,3.67
2022-11-25T13:34:47.669Z,3.85
2022-11-25T13:35:56.910Z,3.58
2022-11-25T13:37:23.030Z,4.32
2022-11-25T13:38:35.648Z,4.38
2022-11-25T13:39:38.607Z,4.05
2022-11-25T13:40:41.366Z,3.47
2022-11-25T13:41:50.393Z,3.50
2022-11-25T13:42:53.733Z,3.85
2022-11-25T13:44:01.966Z,3.42
2022-11-25T13:45:05.426Z,3.50
2022-11-25T13:46:08.417Z,4.07
2022-11-25T13:47:25.098Z,3.95
2022-11-25T13:48:30.300Z,4.80
2022-11-25T13:49:50.740Z,4.25
2022-11-25T13:51:13.328Z,3.95
2022-11-25T13:52:37.478Z,4.05
2022-11-25T13:53:41.602Z,3.22
2022-11-25T13:54:46.330Z,3.90
2022-11-25T13:55:52.190Z,3.83
2022-11-25T13:57:12.887Z,3.80
2022-11-25T13:58:18.614Z,3.55
2022-11-25T13:59:36.037Z,3.80
2022-11-25T14:01:02.847Z,3.95
2022-11-25T14:02:28.707Z,3.45
2022-11-25T14:03:31.497Z,3.55
2022-11-25T14:04:54.298Z,3.90
2022-11-25T14:06:12.626Z,4.28
2022-11-25T14:07:45.451Z,4.10
2022-11-25T14:09:10.965Z,3.92
2022-11-25T14:10:31.749Z,3.97
2022-11-25T14:11:55.438Z,3.88
2022-11-25T14:13:15.915Z,3.70
2022-11-25T14:14:52.264Z,3.70
2022-11-25T14:16:08.266Z,3.95
2022-11-25T14:17:48.334Z,3.38
2022-11-25T14:21:24.598Z,4.15
2022-11-25T14:22:52.450Z,3.97
2022-11-25T14:24:43.633Z,4.13
2022-11-25T14:25:57.926Z,3.80
2022-11-25T14:27:01.169Z,3.67
2022-11-25T14:28:22.306Z,4.32
2022-11-25T14:29:40.671Z,3.75
2022-11-25T14:30:58.952Z,4.55
2022-11-25T14:32:15.935Z,3.75
2022-11-25T14:33:26.127Z,4.20
2022-11-25T14:34:40.147Z,4.28
2022-11-25T14:35:52.313Z,4.10
2022-11-25T14:37:01.165Z,4.35
2022-11-25T14:38:10.063Z,4.03
2022-11-25T14:39:25.828Z,4.35
2022-11-25T14:40:37.591Z,4.00
2022-11-25T14:42:06.908Z,4.40
2022-11-25T14:43:20.369Z,4.47
2022-11-25T14:44:29.236Z,4.50
2022-11-25T14:45:34.691Z,4.50
2022-11-25T14:46:54.465Z,4.53
2022-11-25T14:47:57.455Z,5.43
2022-11-25T14:49:05.191Z,4.28
2022-11-25T14:51:39.172Z,4.20
2022-11-25T14:52:44.271Z,4.32
2022-11-25T14:53:48.988Z,4.40
2022-11-25T14:54:55.078Z,4.40
2022-11-25T14:56:00.421Z,4.22
2022-11-25T14:57:03.325Z,4.32
2022-11-25T14:58:06.080Z,4.70
2022-11-25T14:59:10.524Z,4.20
2022-11-25T15:00:15.811Z,4.68
2022-11-25T15:01:24.010Z,4.53
2022-11-25T15:02:35.222Z,4.50
2022-11-25T15:03:38.024Z,4.30
2022-11-25T15:04:41.955Z,4.60
2022-11-25T15:05:44.561Z,4.28
2022-11-25T15:06:57.100Z,4.25
2022-11-25T15:08:10.640Z,4.90
2022-11-25T15:09:19.119Z,4.82
2022-11-25T15:10:32.371Z,4.72
2022-11-25T15:12:43.467Z,4.22
2022-11-25T15:14:00.502Z,3.95
2022-11-25T15:15:03.313Z,5.13
2022-11-25T15:16:08.704Z,4.60
2022-11-25T15:17:33.135Z,4.35
2022-11-25T15:18:36.852Z,4.72
2022-11-25T15:19:39.898Z,4.93
2022-11-25T15:20:51.376Z,4.57
2022-11-25T15:23:37.565Z,4.53
2022-11-25T15:24:51.600Z,4.47
2022-11-25T15:25:58.159Z,5.00
2022-11-25T15:27:03.508Z,4.65